sensor_id;sensor_type;location;lat;lon;timestamp;P1;durP1;ratioP1;P2;durP2;ratioP2
18610;SDS011;9435;52.122;5.502;2023-02-15T00:01:08;59.30;;;27.20;;
18610;SDS011;9435;52.122;5.502;2023-02-15T00:03:36;57.15;;;26.95;;
18610;SDS011;9435;52.122;5.502;2023-02-15T00:06:04;54.75;;;25.73;;
18610;SDS011;9435;52.122;5.502;2023-02-15T00:08:31;55.42;;;26.73;;
18610;SDS011;9435;52.122;5.502;2023-02-15T00:11:05;62.38;;;26.63;;
18610;SDS011;9435;52.122;5.502;2023-02-15T00:13:33;65.72;;;28.27;;
18610;SDS011;9435;52.122;5.502;2023-02-15T00:16:01;57.28;;;27.60;;
18610;SDS011;9435;52.122;5.502;2023-02-15T00:18:30;57.40;;;26.98;;
18610;SDS011;9435;52.122;5.502;2023-02-15T00:20:57;57.50;;;26.98;;
18610;SDS011;9435;52.122;5.502;2023-02-15T00:23:29;59.40;;;26.60;;
18610;SDS011;9435;52.122;5.502;2023-02-15T00:26:02;57.92;;;27.35;;
18610;SDS011;9435;52.122;5.502;2023-02-15T00:28:31;55.25;;;27.73;;
18610;SDS011;9435;52.122;5.502;2023-02-15T00:31:02;58.92;;;28.48;;
18610;SDS011;9435;52.122;5.502;2023-02-15T00:33:31;55.33;;;27.20;;
18610;SDS011;9435;52.122;5.502;2023-02-15T00:35:59;62.78;;;29.08;;
18610;SDS011;9435;52.122;5.502;2023-02-15T00:38:27;61.10;;;29.02;;
18610;SDS011;9435;52.122;5.502;2023-02-15T00:40:55;62.92;;;29.60;;
18610;SDS011;9435;52.122;5.502;2023-02-15T00:43:24;60.58;;;28.77;;
18610;SDS011;9435;52.122;5.502;2023-02-15T00:45:51;60.28;;;29.35;;
18610;SDS011;9435;52.122;5.502;2023-02-15T00:48:18;60.63;;;28.42;;
18610;SDS011;9435;52.122;5.502;2023-02-15T00:50:48;57.90;;;26.90;;
18610;SDS011;9435;52.122;5.502;2023-02-15T00:53:16;60.75;;;28.50;;
18610;SDS011;9435;52.122;5.502;2023-02-15T00:55:43;59.10;;;27.98;;
18610;SDS011;9435;52.122;5.502;2023-02-15T00:58:11;62.78;;;28.70;;
18610;SDS011;9435;52.122;5.502;2023-02-15T01:00:38;61.35;;;28.10;;
18610;SDS011;9435;52.122;5.502;2023-02-15T01:03:07;66.95;;;29.27;;
18610;SDS011;9435;52.122;5.502;2023-02-15T01:05:35;59.05;;;27.67;;
18610;SDS011;9435;52.122;5.502;2023-02-15T01:08:03;62.08;;;28.30;;
18610;SDS011;9435;52.122;5.502;2023-02-15T01:10:30;60.42;;;26.55;;
18610;SDS011;9435;52.122;5.502;2023-02-15T01:12:58;61.97;;;27.35;;
18610;SDS011;9435;52.122;5.502;2023-02-15T01:15:25;62.25;;;27.95;;
18610;SDS011;9435;52.122;5.502;2023-02-15T01:17:52;63.25;;;28.20;;
18610;SDS011;9435;52.122;5.502;2023-02-15T01:20:19;64.30;;;28.05;;
18610;SDS011;9435;52.122;5.502;2023-02-15T01:22:48;70.75;;;30.25;;
18610;SDS011;9435;52.122;5.502;2023-02-15T01:25:16;68.22;;;30.23;;
18610;SDS011;9435;52.122;5.502;2023-02-15T01:27:44;68.38;;;30.23;;
18610;SDS011;9435;52.122;5.502;2023-02-15T01:30:11;69.43;;;29.45;;
18610;SDS011;9435;52.122;5.502;2023-02-15T01:32:39;70.97;;;30.08;;
18610;SDS011;9435;52.122;5.502;2023-02-15T01:35:07;70.18;;;30.50;;
18610;SDS011;9435;52.122;5.502;2023-02-15T01:37:35;77.78;;;32.38;;
18610;SDS011;9435;52.122;5.502;2023-02-15T01:40:03;79.65;;;31.75;;
18610;SDS011;9435;52.122;5.502;2023-02-15T01:42:33;72.55;;;31.17;;
18610;SDS011;9435;52.122;5.502;2023-02-15T01:45:02;74.75;;;31.95;;
18610;SDS011;9435;52.122;5.502;2023-02-15T01:47:32;64.38;;;28.38;;
18610;SDS011;9435;52.122;5.502;2023-02-15T01:50:06;71.82;;;30.05;;
18610;SDS011;9435;52.122;5.502;2023-02-15T01:52:37;68.60;;;29.55;;
18610;SDS011;9435;52.122;5.502;2023-02-15T01:55:07;72.18;;;29.15;;
18610;SDS011;9435;52.122;5.502;2023-02-15T02:00:05;71.75;;;29.63;;
18610;SDS011;9435;52.122;5.502;2023-02-15T02:02:34;69.78;;;29.45;;
18610;SDS011;9435;52.122;5.502;2023-02-15T02:05:03;72.38;;;30.33;;
18610;SDS011;9435;52.122;5.502;2023-02-15T02:07:33;72.82;;;29.70;;
18610;SDS011;9435;52.122;5.502;2023-02-15T02:10:04;68.13;;;29.77;;
18610;SDS011;9435;52.122;5.502;2023-02-15T02:12:33;70.55;;;29.90;;
18610;SDS011;9435;52.122;5.502;2023-02-15T02:15:03;71.32;;;29.90;;
18610;SDS011;9435;52.122;5.502;2023-02-15T02:17:33;71.72;;;29.92;;
18610;SDS011;9435;52.122;5.502;2023-02-15T02:20:25;69.78;;;29.88;;
18610;SDS011;9435;52.122;5.502;2023-02-15T02:23:25;65.88;;;28.00;;
18610;SDS011;9435;52.122;5.502;2023-02-15T02:29:17;67.97;;;28.27;;
18610;SDS011;9435;52.122;5.502;2023-02-15T02:35:07;70.05;;;28.67;;
18610;SDS011;9435;52.122;5.502;2023-02-15T02:37:41;71.82;;;29.23;;
18610;SDS011;9435;52.122;5.502;2023-02-15T02:40:18;71.97;;;30.35;;
18610;SDS011;9435;52.122;5.502;2023-02-15T02:42:53;72.28;;;30.10;;
18610;SDS011;9435;52.122;5.502;2023-02-15T02:45:25;70.80;;;29.75;;
18610;SDS011;9435;52.122;5.502;2023-02-15T02:47:56;67.47;;;29.88;;
18610;SDS011;9435;52.122;5.502;2023-02-15T02:50:30;65.03;;;28.80;;
18610;SDS011;9435;52.122;5.502;2023-02-15T02:52:58;71.78;;;30.02;;
18610;SDS011;9435;52.122;5.502;2023-02-15T02:55:30;71.93;;;30.10;;
18610;SDS011;9435;52.122;5.502;2023-02-15T02:57:59;70.45;;;30.15;;
18610;SDS011;9435;52.122;5.502;2023-02-15T03:00:31;75.15;;;30.33;;
18610;SDS011;9435;52.122;5.502;2023-02-15T03:03:02;69.25;;;30.02;;
18610;SDS011;9435;52.122;5.502;2023-02-15T03:05:36;70.30;;;29.50;;
18610;SDS011;9435;52.122;5.502;2023-02-15T03:08:07;76.18;;;30.88;;
18610;SDS011;9435;52.122;5.502;2023-02-15T03:10:35;69.57;;;29.80;;
18610;SDS011;9435;52.122;5.502;2023-02-15T03:13:06;69.78;;;30.33;;
18610;SDS011;9435;52.122;5.502;2023-02-15T03:15:34;66.45;;;28.70;;
18610;SDS011;9435;52.122;5.502;2023-02-15T03:18:23;67.03;;;28.88;;
18610;SDS011;9435;52.122;5.502;2023-02-15T03:20:59;69.97;;;28.77;;
18610;SDS011;9435;52.122;5.502;2023-02-15T03:23:29;75.28;;;30.63;;
18610;SDS011;9435;52.122;5.502;2023-02-15T03:25:59;72.00;;;28.25;;
18610;SDS011;9435;52.122;5.502;2023-02-15T03:28:30;66.35;;;28.00;;
18610;SDS011;9435;52.122;5.502;2023-02-15T03:31:02;65.15;;;28.67;;
18610;SDS011;9435;52.122;5.502;2023-02-15T03:33:32;70.32;;;28.52;;
18610;SDS011;9435;52.122;5.502;2023-02-15T03:36:07;67.40;;;28.45;;
18610;SDS011;9435;52.122;5.502;2023-02-15T03:38:46;62.55;;;26.63;;
18610;SDS011;9435;52.122;5.502;2023-02-15T03:41:16;69.25;;;28.13;;
18610;SDS011;9435;52.122;5.502;2023-02-15T03:43:48;69.18;;;28.42;;
18610;SDS011;9435;52.122;5.502;2023-02-15T03:46:20;63.10;;;27.20;;
18610;SDS011;9435;52.122;5.502;2023-02-15T03:48:53;63.30;;;27.10;;
18610;SDS011;9435;52.122;5.502;2023-02-15T03:51:25;66.78;;;27.42;;
18610;SDS011;9435;52.122;5.502;2023-02-15T03:54:03;63.42;;;25.73;;
18610;SDS011;9435;52.122;5.502;2023-02-15T03:56:33;59.30;;;25.23;;
18610;SDS011;9435;52.122;5.502;2023-02-15T03:59:03;63.35;;;26.13;;
18610;SDS011;9435;52.122;5.502;2023-02-15T04:01:50;64.18;;;26.75;;
18610;SDS011;9435;52.122;5.502;2023-02-15T04:04:32;69.60;;;28.00;;
18610;SDS011;9435;52.122;5.502;2023-02-15T04:07:03;66.88;;;26.45;;
18610;SDS011;9435;52.122;5.502;2023-02-15T04:09:31;69.63;;;26.60;;
18610;SDS011;9435;52.122;5.502;2023-02-15T04:12:15;67.40;;;27.23;;
18610;SDS011;9435;52.122;5.502;2023-02-15T04:14:43;63.67;;;26.58;;
18610;SDS011;9435;52.122;5.502;2023-02-15T04:17:27;59.72;;;25.52;;
18610;SDS011;9435;52.122;5.502;2023-02-15T04:19:54;61.88;;;26.23;;
18610;SDS011;9435;52.122;5.502;2023-02-15T04:22:40;57.05;;;24.88;;
18610;SDS011;9435;52.122;5.502;2023-02-15T04:25:24;62.95;;;24.13;;
18610;SDS011;9435;52.122;5.502;2023-02-15T04:27:52;60.38;;;24.80;;
18610;SDS011;9435;52.122;5.502;2023-02-15T04:30:21;55.10;;;24.67;;
18610;SDS011;9435;52.122;5.502;2023-02-15T04:32:49;59.25;;;24.70;;
18610;SDS011;9435;52.122;5.502;2023-02-15T04:35:17;55.40;;;23.40;;
18610;SDS011;9435;52.122;5.502;2023-02-15T04:37:45;57.90;;;23.50;;
18610;SDS011;9435;52.122;5.502;2023-02-15T04:40:13;61.00;;;24.63;;
18610;SDS011;9435;52.122;5.502;2023-02-15T04:42:41;63.40;;;25.60;;
18610;SDS011;9435;52.122;5.502;2023-02-15T04:45:08;66.10;;;26.80;;
18610;SDS011;9435;52.122;5.502;2023-02-15T04:47:35;65.97;;;26.58;;
18610;SDS011;9435;52.122;5.502;2023-02-15T04:50:02;59.75;;;25.48;;
18610;SDS011;9435;52.122;5.502;2023-02-15T04:52:30;64.75;;;26.65;;
18610;SDS011;9435;52.122;5.502;2023-02-15T04:54:58;63.40;;;25.30;;
18610;SDS011;9435;52.122;5.502;2023-02-15T04:57:25;58.30;;;25.35;;
18610;SDS011;9435;52.122;5.502;2023-02-15T04:59:52;60.90;;;25.13;;
18610;SDS011;9435;52.122;5.502;2023-02-15T05:02:19;61.05;;;23.75;;
18610;SDS011;9435;52.122;5.502;2023-02-15T05:04:46;60.05;;;24.75;;
18610;SDS011;9435;52.122;5.502;2023-02-15T05:07:13;60.47;;;24.98;;
18610;SDS011;9435;52.122;5.502;2023-02-15T05:09:41;65.28;;;25.83;;
18610;SDS011;9435;52.122;5.502;2023-02-15T05:12:09;69.90;;;26.75;;
18610;SDS011;9435;52.122;5.502;2023-02-15T05:14:36;66.57;;;26.70;;
18610;SDS011;9435;52.122;5.502;2023-02-15T05:17:03;70.07;;;27.00;;
18610;SDS011;9435;52.122;5.502;2023-02-15T05:19:30;70.50;;;27.45;;
18610;SDS011;9435;52.122;5.502;2023-02-15T05:21:57;75.65;;;27.60;;
18610;SDS011;9435;52.122;5.502;2023-02-15T05:24:24;64.80;;;26.90;;
18610;SDS011;9435;52.122;5.502;2023-02-15T05:27:11;69.10;;;26.50;;
18610;SDS011;9435;52.122;5.502;2023-02-15T05:29:56;66.40;;;26.63;;
18610;SDS011;9435;52.122;5.502;2023-02-15T05:32:23;72.35;;;28.02;;
18610;SDS011;9435;52.122;5.502;2023-02-15T05:34:50;69.45;;;27.00;;
18610;SDS011;9435;52.122;5.502;2023-02-15T05:37:17;63.22;;;26.50;;
18610;SDS011;9435;52.122;5.502;2023-02-15T05:39:44;69.05;;;26.42;;
18610;SDS011;9435;52.122;5.502;2023-02-15T05:42:13;72.28;;;26.83;;
18610;SDS011;9435;52.122;5.502;2023-02-15T05:44:40;67.85;;;26.90;;
18610;SDS011;9435;52.122;5.502;2023-02-15T05:47:07;72.38;;;27.42;;
18610;SDS011;9435;52.122;5.502;2023-02-15T05:49:34;73.32;;;27.35;;
18610;SDS011;9435;52.122;5.502;2023-02-15T05:52:01;69.75;;;28.05;;
18610;SDS011;9435;52.122;5.502;2023-02-15T05:54:29;70.28;;;29.25;;
18610;SDS011;9435;52.122;5.502;2023-02-15T05:56:56;71.57;;;27.92;;
18610;SDS011;9435;52.122;5.502;2023-02-15T05:59:25;72.03;;;27.85;;
18610;SDS011;9435;52.122;5.502;2023-02-15T06:01:52;72.75;;;28.45;;
18610;SDS011;9435;52.122;5.502;2023-02-15T06:04:19;72.28;;;29.30;;
18610;SDS011;9435;52.122;5.502;2023-02-15T06:06:46;71.15;;;28.08;;
18610;SDS011;9435;52.122;5.502;2023-02-15T06:09:13;71.45;;;27.30;;
18610;SDS011;9435;52.122;5.502;2023-02-15T06:11:43;78.38;;;30.08;;
18610;SDS011;9435;52.122;5.502;2023-02-15T06:14:10;80.30;;;29.40;;
18610;SDS011;9435;52.122;5.502;2023-02-15T06:16:39;74.07;;;29.48;;
18610;SDS011;9435;52.122;5.502;2023-02-15T06:19:06;81.30;;;29.90;;
18610;SDS011;9435;52.122;5.502;2023-02-15T06:21:33;86.00;;;36.90;;
18610;SDS011;9435;52.122;5.502;2023-02-15T06:24:00;80.93;;;31.17;;
18610;SDS011;9435;52.122;5.502;2023-02-15T06:26:27;79.00;;;32.42;;
18610;SDS011;9435;52.122;5.502;2023-02-15T06:28:54;90.03;;;31.42;;
18610;SDS011;9435;52.122;5.502;2023-02-15T06:31:21;77.43;;;28.67;;
18610;SDS011;9435;52.122;5.502;2023-02-15T06:33:49;76.38;;;29.23;;
18610;SDS011;9435;52.122;5.502;2023-02-15T06:36:16;72.38;;;29.08;;
18610;SDS011;9435;52.122;5.502;2023-02-15T06:38:43;79.68;;;30.83;;
18610;SDS011;9435;52.122;5.502;2023-02-15T06:41:10;76.50;;;28.90;;
18610;SDS011;9435;52.122;5.502;2023-02-15T06:43:37;78.93;;;29.17;;
18610;SDS011;9435;52.122;5.502;2023-02-15T06:46:04;84.68;;;31.45;;
18610;SDS011;9435;52.122;5.502;2023-02-15T06:48:31;96.07;;;33.55;;
18610;SDS011;9435;52.122;5.502;2023-02-15T06:51:00;102.75;;;34.25;;
18610;SDS011;9435;52.122;5.502;2023-02-15T06:53:27;96.70;;;34.25;;
18610;SDS011;9435;52.122;5.502;2023-02-15T06:55:59;92.97;;;33.70;;
18610;SDS011;9435;52.122;5.502;2023-02-15T06:58:27;96.40;;;34.40;;
18610;SDS011;9435;52.122;5.502;2023-02-15T07:00:54;101.45;;;34.83;;
18610;SDS011;9435;52.122;5.502;2023-02-15T07:03:22;102.97;;;35.72;;
18610;SDS011;9435;52.122;5.502;2023-02-15T07:05:53;97.53;;;34.05;;
18610;SDS011;9435;52.122;5.502;2023-02-15T07:08:22;105.07;;;35.85;;
18610;SDS011;9435;52.122;5.502;2023-02-15T07:10:50;100.32;;;35.53;;
18610;SDS011;9435;52.122;5.502;2023-02-15T07:13:18;101.43;;;35.25;;
18610;SDS011;9435;52.122;5.502;2023-02-15T07:15:44;98.53;;;35.55;;
18610;SDS011;9435;52.122;5.502;2023-02-15T07:18:14;104.07;;;36.28;;
18610;SDS011;9435;52.122;5.502;2023-02-15T07:20:41;102.05;;;36.03;;
18610;SDS011;9435;52.122;5.502;2023-02-15T07:23:08;95.78;;;34.78;;
18610;SDS011;9435;52.122;5.502;2023-02-15T07:25:37;100.25;;;35.03;;
18610;SDS011;9435;52.122;5.502;2023-02-15T07:28:04;104.75;;;36.85;;
18610;SDS011;9435;52.122;5.502;2023-02-15T07:30:32;101.30;;;34.53;;
18610;SDS011;9435;52.122;5.502;2023-02-15T07:33:00;94.90;;;34.80;;
18610;SDS011;9435;52.122;5.502;2023-02-15T07:35:48;94.90;;;35.30;;
18610;SDS011;9435;52.122;5.502;2023-02-15T07:38:15;99.13;;;34.72;;
18610;SDS011;9435;52.122;5.502;2023-02-15T07:40:45;107.97;;;37.05;;
18610;SDS011;9435;52.122;5.502;2023-02-15T07:43:12;112.30;;;37.65;;
18610;SDS011;9435;52.122;5.502;2023-02-15T07:45:40;116.40;;;39.70;;
18610;SDS011;9435;52.122;5.502;2023-02-15T07:48:07;122.93;;;40.38;;
18610;SDS011;9435;52.122;5.502;2023-02-15T07:50:34;116.50;;;40.00;;
18610;SDS011;9435;52.122;5.502;2023-02-15T07:53:02;120.13;;;41.40;;
18610;SDS011;9435;52.122;5.502;2023-02-15T07:55:29;121.57;;;41.25;;
18610;SDS011;9435;52.122;5.502;2023-02-15T07:57:57;126.30;;;41.38;;
18610;SDS011;9435;52.122;5.502;2023-02-15T08:00:24;129.35;;;42.97;;
18610;SDS011;9435;52.122;5.502;2023-02-15T08:02:52;127.65;;;43.25;;
18610;SDS011;9435;52.122;5.502;2023-02-15T08:05:39;131.35;;;43.80;;
18610;SDS011;9435;52.122;5.502;2023-02-15T08:08:08;117.38;;;41.53;;
18610;SDS011;9435;52.122;5.502;2023-02-15T08:10:56;128.30;;;44.72;;
18610;SDS011;9435;52.122;5.502;2023-02-15T08:13:45;128.25;;;45.55;;
18610;SDS011;9435;52.122;5.502;2023-02-15T08:16:28;119.95;;;45.05;;
18610;SDS011;9435;52.122;5.502;2023-02-15T08:18:58;116.97;;;43.72;;
18610;SDS011;9435;52.122;5.502;2023-02-15T08:21:26;130.27;;;46.97;;
18610;SDS011;9435;52.122;5.502;2023-02-15T08:23:55;121.78;;;44.58;;
18610;SDS011;9435;52.122;5.502;2023-02-15T08:26:23;127.75;;;43.75;;
18610;SDS011;9435;52.122;5.502;2023-02-15T08:28:53;119.35;;;41.80;;
18610;SDS011;9435;52.122;5.502;2023-02-15T08:31:21;112.82;;;41.47;;
18610;SDS011;9435;52.122;5.502;2023-02-15T08:33:48;114.20;;;40.67;;
18610;SDS011;9435;52.122;5.502;2023-02-15T08:36:16;117.80;;;42.65;;
18610;SDS011;9435;52.122;5.502;2023-02-15T08:38:45;117.35;;;42.35;;
18610;SDS011;9435;52.122;5.502;2023-02-15T08:41:14;111.35;;;40.90;;
18610;SDS011;9435;52.122;5.502;2023-02-15T08:43:42;112.78;;;39.67;;
18610;SDS011;9435;52.122;5.502;2023-02-15T08:46:11;109.82;;;40.67;;
18610;SDS011;9435;52.122;5.502;2023-02-15T08:48:39;100.47;;;39.70;;
18610;SDS011;9435;52.122;5.502;2023-02-15T08:51:08;99.13;;;39.72;;
18610;SDS011;9435;52.122;5.502;2023-02-15T08:53:37;97.47;;;38.72;;
18610;SDS011;9435;52.122;5.502;2023-02-15T08:56:05;93.57;;;37.97;;
18610;SDS011;9435;52.122;5.502;2023-02-15T08:58:33;91.82;;;37.60;;
18610;SDS011;9435;52.122;5.502;2023-02-15T09:01:00;94.45;;;37.90;;
18610;SDS011;9435;52.122;5.502;2023-02-15T09:03:35;89.35;;;37.17;;
18610;SDS011;9435;52.122;5.502;2023-02-15T09:06:02;89.50;;;35.47;;
18610;SDS011;9435;52.122;5.502;2023-02-15T09:08:29;90.45;;;37.15;;
18610;SDS011;9435;52.122;5.502;2023-02-15T09:11:03;93.57;;;37.35;;
18610;SDS011;9435;52.122;5.502;2023-02-15T09:13:32;92.70;;;37.47;;
18610;SDS011;9435;52.122;5.502;2023-02-15T09:15:59;89.80;;;37.17;;
18610;SDS011;9435;52.122;5.502;2023-02-15T09:18:28;93.38;;;37.10;;
18610;SDS011;9435;52.122;5.502;2023-02-15T09:20:58;81.72;;;35.17;;
18610;SDS011;9435;52.122;5.502;2023-02-15T09:23:30;79.50;;;34.78;;
18610;SDS011;9435;52.122;5.502;2023-02-15T09:26:01;85.90;;;35.95;;
18610;SDS011;9435;52.122;5.502;2023-02-15T09:28:29;88.28;;;36.17;;
18610;SDS011;9435;52.122;5.502;2023-02-15T09:31:03;86.25;;;36.00;;
18610;SDS011;9435;52.122;5.502;2023-02-15T09:33:32;85.90;;;36.35;;
18610;SDS011;9435;52.122;5.502;2023-02-15T09:36:01;81.38;;;35.28;;
18610;SDS011;9435;52.122;5.502;2023-02-15T09:38:29;86.72;;;36.08;;
18610;SDS011;9435;52.122;5.502;2023-02-15T09:40:58;84.47;;;36.40;;
18610;SDS011;9435;52.122;5.502;2023-02-15T09:43:34;86.15;;;36.38;;
18610;SDS011;9435;52.122;5.502;2023-02-15T09:46:16;78.28;;;34.83;;
18610;SDS011;9435;52.122;5.502;2023-02-15T09:48:59;82.50;;;34.95;;
18610;SDS011;9435;52.122;5.502;2023-02-15T09:51:41;86.28;;;35.97;;
18610;SDS011;9435;52.122;5.502;2023-02-15T09:54:33;76.53;;;34.40;;
18610;SDS011;9435;52.122;5.502;2023-02-15T09:57:14;82.53;;;34.25;;
18610;SDS011;9435;52.122;5.502;2023-02-15T09:59:52;77.80;;;34.03;;
18610;SDS011;9435;52.122;5.502;2023-02-15T10:02:34;78.75;;;34.72;;
18610;SDS011;9435;52.122;5.502;2023-02-15T10:05:14;74.88;;;33.80;;
18610;SDS011;9435;52.122;5.502;2023-02-15T10:07:57;78.50;;;34.20;;
18610;SDS011;9435;52.122;5.502;2023-02-15T10:10:38;77.28;;;34.15;;
18610;SDS011;9435;52.122;5.502;2023-02-15T10:13:18;74.72;;;33.92;;
18610;SDS011;9435;52.122;5.502;2023-02-15T10:15:59;79.85;;;34.25;;
18610;SDS011;9435;52.122;5.502;2023-02-15T10:18:51;72.63;;;32.50;;
18610;SDS011;9435;52.122;5.502;2023-02-15T10:21:33;73.32;;;31.85;;
18610;SDS011;9435;52.122;5.502;2023-02-15T10:27:11;70.05;;;31.48;;
18610;SDS011;9435;52.122;5.502;2023-02-15T10:29:41;67.97;;;30.95;;
18610;SDS011;9435;52.122;5.502;2023-02-15T10:32:16;69.50;;;31.38;;
18610;SDS011;9435;52.122;5.502;2023-02-15T10:34:50;67.70;;;31.20;;
18610;SDS011;9435;52.122;5.502;2023-02-15T10:37:32;66.55;;;30.08;;
18610;SDS011;9435;52.122;5.502;2023-02-15T10:40:14;65.75;;;31.52;;
18610;SDS011;9435;52.122;5.502;2023-02-15T10:42:53;67.60;;;30.73;;
18610;SDS011;9435;52.122;5.502;2023-02-15T10:45:39;68.20;;;30.70;;
18610;SDS011;9435;52.122;5.502;2023-02-15T10:48:20;65.78;;;31.02;;
18610;SDS011;9435;52.122;5.502;2023-02-15T10:51:05;66.43;;;31.33;;
18610;SDS011;9435;52.122;5.502;2023-02-15T10:53:45;64.15;;;30.05;;
18610;SDS011;9435;52.122;5.502;2023-02-15T10:56:39;66.50;;;30.67;;
18610;SDS011;9435;52.122;5.502;2023-02-15T10:59:30;67.85;;;30.33;;
18610;SDS011;9435;52.122;5.502;2023-02-15T11:02:10;66.22;;;29.75;;
18610;SDS011;9435;52.122;5.502;2023-02-15T11:04:46;59.50;;;27.25;;
18610;SDS011;9435;52.122;5.502;2023-02-15T11:07:21;60.28;;;28.00;;
18610;SDS011;9435;52.122;5.502;2023-02-15T11:09:51;62.22;;;29.00;;
18610;SDS011;9435;52.122;5.502;2023-02-15T11:12:28;62.08;;;29.45;;
18610;SDS011;9435;52.122;5.502;2023-02-15T11:14:57;57.65;;;28.52;;
18610;SDS011;9435;52.122;5.502;2023-02-15T11:17:30;60.47;;;27.75;;
18610;SDS011;9435;52.122;5.502;2023-02-15T11:20:05;64.40;;;29.25;;
18610;SDS011;9435;52.122;5.502;2023-02-15T11:22:43;63.63;;;28.95;;
18610;SDS011;9435;52.122;5.502;2023-02-15T11:25:17;62.03;;;29.20;;
18610;SDS011;9435;52.122;5.502;2023-02-15T11:27:47;64.68;;;28.25;;
18610;SDS011;9435;52.122;5.502;2023-02-15T11:30:17;62.78;;;30.48;;
18610;SDS011;9435;52.122;5.502;2023-02-15T11:32:47;59.75;;;28.77;;
18610;SDS011;9435;52.122;5.502;2023-02-15T11:35:19;61.70;;;29.30;;
18610;SDS011;9435;52.122;5.502;2023-02-15T11:37:51;64.68;;;29.45;;
18610;SDS011;9435;52.122;5.502;2023-02-15T11:40:24;69.10;;;30.05;;
18610;SDS011;9435;52.122;5.502;2023-02-15T11:42:56;63.42;;;29.45;;
18610;SDS011;9435;52.122;5.502;2023-02-15T11:45:26;62.92;;;29.73;;
18610;SDS011;9435;52.122;5.502;2023-02-15T11:47:54;65.05;;;29.92;;
18610;SDS011;9435;52.122;5.502;2023-02-15T11:50:23;62.13;;;28.90;;
18610;SDS011;9435;52.122;5.502;2023-02-15T11:52:52;58.40;;;28.50;;
18610;SDS011;9435;52.122;5.502;2023-02-15T11:55:22;61.60;;;28.20;;
18610;SDS011;9435;52.122;5.502;2023-02-15T11:57:52;60.22;;;28.33;;
18610;SDS011;9435;52.122;5.502;2023-02-15T12:00:27;60.78;;;29.23;;
18610;SDS011;9435;52.122;5.502;2023-02-15T12:03:02;59.38;;;28.70;;
18610;SDS011;9435;52.122;5.502;2023-02-15T12:05:35;67.53;;;30.35;;
18610;SDS011;9435;52.122;5.502;2023-02-15T12:08:09;61.70;;;28.73;;
18610;SDS011;9435;52.122;5.502;2023-02-15T12:10:43;61.75;;;28.02;;
18610;SDS011;9435;52.122;5.502;2023-02-15T12:13:19;61.03;;;28.75;;
18610;SDS011;9435;52.122;5.502;2023-02-15T12:15:48;56.17;;;26.98;;
18610;SDS011;9435;52.122;5.502;2023-02-15T12:18:26;58.88;;;27.67;;
18610;SDS011;9435;52.122;5.502;2023-02-15T12:21:03;61.53;;;28.60;;
18610;SDS011;9435;52.122;5.502;2023-02-15T12:23:33;63.63;;;29.15;;
18610;SDS011;9435;52.122;5.502;2023-02-15T12:26:01;62.95;;;28.65;;
18610;SDS011;9435;52.122;5.502;2023-02-15T12:28:31;62.03;;;28.98;;
18610;SDS011;9435;52.122;5.502;2023-02-15T12:31:02;57.35;;;27.52;;
18610;SDS011;9435;52.122;5.502;2023-02-15T12:33:36;59.38;;;28.60;;
18610;SDS011;9435;52.122;5.502;2023-02-15T12:36:11;65.10;;;28.33;;
18610;SDS011;9435;52.122;5.502;2023-02-15T12:38:42;57.80;;;28.13;;
18610;SDS011;9435;52.122;5.502;2023-02-15T12:41:21;60.70;;;28.63;;
18610;SDS011;9435;52.122;5.502;2023-02-15T12:44:02;59.03;;;28.63;;
18610;SDS011;9435;52.122;5.502;2023-02-15T12:46:33;57.67;;;27.15;;
18610;SDS011;9435;52.122;5.502;2023-02-15T12:49:07;58.88;;;27.20;;
18610;SDS011;9435;52.122;5.502;2023-02-15T12:51:43;56.67;;;26.63;;
18610;SDS011;9435;52.122;5.502;2023-02-15T12:54:22;59.05;;;26.70;;
18610;SDS011;9435;52.122;5.502;2023-02-15T12:56:55;60.10;;;28.48;;
18610;SDS011;9435;52.122;5.502;2023-02-15T12:59:23;57.50;;;26.88;;
18610;SDS011;9435;52.122;5.502;2023-02-15T13:01:52;62.38;;;28.38;;
18610;SDS011;9435;52.122;5.502;2023-02-15T13:04:22;58.20;;;28.05;;
18610;SDS011;9435;52.122;5.502;2023-02-15T13:06:51;59.08;;;28.23;;
18610;SDS011;9435;52.122;5.502;2023-02-15T13:09:23;60.53;;;29.17;;
18610;SDS011;9435;52.122;5.502;2023-02-15T13:12:09;61.95;;;29.52;;
18610;SDS011;9435;52.122;5.502;2023-02-15T13:14:43;58.38;;;29.23;;
18610;SDS011;9435;52.122;5.502;2023-02-15T13:17:13;56.20;;;28.08;;
18610;SDS011;9435;52.122;5.502;2023-02-15T13:19:44;58.70;;;28.90;;
18610;SDS011;9435;52.122;5.502;2023-02-15T13:22:15;58.70;;;28.75;;
18610;SDS011;9435;52.122;5.502;2023-02-15T13:24:46;60.92;;;29.50;;
18610;SDS011;9435;52.122;5.502;2023-02-15T13:27:16;59.50;;;29.67;;
18610;SDS011;9435;52.122;5.502;2023-02-15T13:29:46;64.88;;;30.05;;
18610;SDS011;9435;52.122;5.502;2023-02-15T13:32:24;61.65;;;29.60;;
18610;SDS011;9435;52.122;5.502;2023-02-15T13:34:54;60.85;;;29.73;;
18610;SDS011;9435;52.122;5.502;2023-02-15T13:37:28;61.42;;;30.88;;
18610;SDS011;9435;52.122;5.502;2023-02-15T13:40:12;62.00;;;30.30;;
18610;SDS011;9435;52.122;5.502;2023-02-15T13:42:43;62.78;;;30.02;;
18610;SDS011;9435;52.122;5.502;2023-02-15T13:45:27;63.20;;;30.05;;
18610;SDS011;9435;52.122;5.502;2023-02-15T13:48:06;59.50;;;30.10;;
18610;SDS011;9435;52.122;5.502;2023-02-15T13:50:49;57.92;;;28.65;;
18610;SDS011;9435;52.122;5.502;2023-02-15T13:53:34;60.92;;;28.73;;
18610;SDS011;9435;52.122;5.502;2023-02-15T13:56:14;62.13;;;30.27;;
18610;SDS011;9435;52.122;5.502;2023-02-15T13:58:52;58.38;;;28.67;;
18610;SDS011;9435;52.122;5.502;2023-02-15T14:01:32;57.22;;;28.33;;
18610;SDS011;9435;52.122;5.502;2023-02-15T14:04:12;59.42;;;29.27;;
18610;SDS011;9435;52.122;5.502;2023-02-15T14:07:12;60.25;;;30.05;;
18610;SDS011;9435;52.122;5.502;2023-02-15T14:09:56;61.67;;;28.77;;
18610;SDS011;9435;52.122;5.502;2023-02-15T14:12:52;61.28;;;29.88;;
18610;SDS011;9435;52.122;5.502;2023-02-15T14:15:42;60.67;;;29.95;;
18610;SDS011;9435;52.122;5.502;2023-02-15T14:18:16;64.97;;;30.48;;
18610;SDS011;9435;52.122;5.502;2023-02-15T14:20:57;63.70;;;31.00;;
18610;SDS011;9435;52.122;5.502;2023-02-15T14:23:35;61.05;;;30.00;;
18610;SDS011;9435;52.122;5.502;2023-02-15T14:26:20;65.35;;;31.75;;
18610;SDS011;9435;52.122;5.502;2023-02-15T14:28:58;61.50;;;30.95;;
18610;SDS011;9435;52.122;5.502;2023-02-15T14:31:34;62.78;;;29.98;;
18610;SDS011;9435;52.122;5.502;2023-02-15T14:34:08;61.60;;;30.75;;
18610;SDS011;9435;52.122;5.502;2023-02-15T14:36:48;65.75;;;31.13;;
18610;SDS011;9435;52.122;5.502;2023-02-15T14:39:19;63.95;;;31.25;;
18610;SDS011;9435;52.122;5.502;2023-02-15T14:42:10;63.63;;;31.33;;
18610;SDS011;9435;52.122;5.502;2023-02-15T14:44:45;60.08;;;30.65;;
18610;SDS011;9435;52.122;5.502;2023-02-15T14:47:17;60.92;;;30.67;;
18610;SDS011;9435;52.122;5.502;2023-02-15T14:49:48;63.88;;;31.23;;
18610;SDS011;9435;52.122;5.502;2023-02-15T14:52:17;65.22;;;30.55;;
18610;SDS011;9435;52.122;5.502;2023-02-15T14:54:56;62.22;;;30.83;;
18610;SDS011;9435;52.122;5.502;2023-02-15T14:57:27;61.58;;;31.90;;
18610;SDS011;9435;52.122;5.502;2023-02-15T14:59:57;65.97;;;31.67;;
18610;SDS011;9435;52.122;5.502;2023-02-15T15:02:29;62.70;;;30.90;;
18610;SDS011;9435;52.122;5.502;2023-02-15T15:05:11;61.70;;;30.65;;
18610;SDS011;9435;52.122;5.502;2023-02-15T15:07:46;61.80;;;31.63;;
18610;SDS011;9435;52.122;5.502;2023-02-15T15:10:38;62.75;;;31.70;;
18610;SDS011;9435;52.122;5.502;2023-02-15T15:16:25;64.18;;;31.70;;
18610;SDS011;9435;52.122;5.502;2023-02-15T15:19:12;64.45;;;32.92;;